createdAt,value
2018-06-22T00:01:02.022Z,100590
2018-06-22T00:02:06.056Z,100590
2018-06-22T00:03:11.217Z,100607
2018-06-22T00:04:16.920Z,100602
2018-06-22T00:05:21.531Z,100593
2018-06-22T00:06:27.476Z,100596
2018-06-22T00:07:32.918Z,100599
2018-06-22T00:08:38.366Z,100599
2018-06-22T00:09:43.941Z,100596
2018-06-22T00:10:49.413Z,100590
2018-06-22T00:11:54.314Z,100593
2018-06-22T00:13:00.143Z,100590
2018-06-22T00:14:05.026Z,100596
2018-06-22T00:15:09.613Z,100604
2018-06-22T00:16:14.735Z,100587
2018-06-22T00:17:20.179Z,100590
2018-06-22T00:18:25.999Z,100593
2018-06-22T00:19:31.437Z,100587
2018-06-22T00:20:36.879Z,100596
2018-06-22T00:21:42.717Z,100590
2018-06-22T00:22:47.933Z,100590
2018-06-22T00:23:53.367Z,100602
2018-06-22T00:24:58.782Z,100596
2018-06-22T00:26:03.374Z,100593
2018-06-22T00:27:07.960Z,100599
2018-06-22T00:28:13.103Z,100593
2018-06-22T00:29:18.547Z,100599
2018-06-22T00:30:22.871Z,100593
2018-06-22T00:31:28.560Z,100587
2018-06-22T00:32:33.740Z,100579
2018-06-22T00:33:39.165Z,100593
2018-06-22T00:34:44.764Z,100590
2018-06-22T00:35:50.235Z,100582
2018-06-22T00:36:55.408Z,100579
2018-06-22T00:38:00.853Z,100587
2018-06-22T00:39:06.031Z,100579
2018-06-22T00:40:11.461Z,100587
2018-06-22T00:41:16.344Z,100576
2018-06-22T00:42:21.234Z,100574
2018-06-22T00:43:26.790Z,100587
2018-06-22T00:44:32.228Z,100574
2018-06-22T00:45:37.600Z,100576
2018-06-22T00:46:43.034Z,100574
2018-06-22T00:47:48.219Z,100576
2018-06-22T00:48:53.619Z,100565
2018-06-22T00:49:58.775Z,100574
2018-06-22T00:51:03.377Z,100568
2018-06-22T00:52:08.609Z,100568
2018-06-22T00:53:13.468Z,100562
2018-06-22T00:54:18.927Z,100562
2018-06-22T00:55:24.627Z,100553
2018-06-22T00:56:30.076Z,100556
2018-06-22T00:57:35.496Z,100547
2018-06-22T00:58:40.659Z,100556
2018-06-22T00:59:46.100Z,100553
2018-06-22T01:00:52.041Z,100550
2018-06-22T01:01:56.922Z,100539
2018-06-22T01:03:02.380Z,100562
2018-06-22T01:04:07.516Z,100562
2018-06-22T01:05:12.961Z,100547
2018-06-22T01:06:17.854Z,100542
2018-06-22T01:07:23.361Z,100536
2018-06-22T01:08:27.962Z,100536
2018-06-22T01:09:32.906Z,100530
2018-06-22T01:10:38.069Z,100542
2018-06-22T01:11:43.514Z,100533
2018-06-22T01:12:49.248Z,100542
2018-06-22T01:13:54.685Z,100530
2018-06-22T01:14:59.841Z,100521
2018-06-22T01:16:04.668Z,100533
2018-06-22T01:17:10.115Z,100533
2018-06-22T01:18:15.607Z,100530
2018-06-22T01:19:21.025Z,100533
2018-06-22T01:20:25.906Z,100524
2018-06-22T01:21:31.629Z,100536
2018-06-22T01:22:36.818Z,100530
2018-06-22T01:23:41.957Z,100533
2018-06-22T01:24:47.672Z,100521
2018-06-22T01:25:53.130Z,100527
2018-06-22T01:26:58.580Z,100515
2018-06-22T01:28:03.543Z,100518
2018-06-22T01:29:08.996Z,100516
2018-06-22T01:30:13.610Z,100518
2018-06-22T01:31:19.074Z,100515
2018-06-22T01:32:23.692Z,100518
2018-06-22T01:33:29.576Z,100524
2018-06-22T01:34:35.029Z,100518
2018-06-22T01:35:40.185Z,100507
2018-06-22T01:36:45.893Z,100513
2018-06-22T01:37:51.335Z,100510
2018-06-22T01:38:56.792Z,100513
2018-06-22T01:40:02.247Z,100513
2018-06-22T01:41:06.859Z,100510
2018-06-22T01:42:11.466Z,100510
2018-06-22T01:43:17.308Z,100507
2018-06-22T01:44:22.757Z,100507
2018-06-22T01:45:28.773Z,100492
2018-06-22T01:46:33.674Z,100492
2018-06-22T01:47:39.121Z,100501
2018-06-22T01:48:44.248Z,100507
2018-06-22T01:49:49.131Z,100495
2018-06-22T01:50:54.296Z,100501
2018-06-22T01:51:59.708Z,100507
2018-06-22T01:53:05.155Z,100501
2018-06-22T01:54:10.038Z,100507
2018-06-22T01:55:15.457Z,100501
2018-06-22T01:56:20.340Z,100501
2018-06-22T01:57:40.494Z,100501
2018-06-22T01:58:45.942Z,100507
2018-06-22T01:59:50.820Z,100501
2018-06-22T02:00:56.515Z,100495
2018-06-22T02:02:01.693Z,100495
2018-06-22T02:03:06.575Z,100510
2018-06-22T02:04:11.974Z,100513
2018-06-22T02:05:17.412Z,100501
2018-06-22T02:06:22.301Z,100495
2018-06-22T02:07:27.918Z,100489
2018-06-22T02:08:33.377Z,100489
2018-06-22T02:09:39.189Z,100492
2018-06-22T02:10:44.332Z,100498
2018-06-22T02:11:49.783Z,100498
2018-06-22T02:12:55.058Z,100495
2018-06-22T02:14:00.221Z,100486
2018-06-22T02:15:04.530Z,100489
2018-06-22T02:16:09.945Z,100489
2018-06-22T02:17:14.808Z,100489
2018-06-22T02:18:19.422Z,100486
2018-06-22T02:19:24.859Z,100492
2018-06-22T02:20:29.782Z,100489
2018-06-22T02:21:34.762Z,100489
2018-06-22T02:22:39.642Z,100484
2018-06-22T02:23:44.803Z,100484
2018-06-22T02:24:50.690Z,100484
2018-06-22T02:25:55.853Z,100492
2018-06-22T02:27:01.295Z,100481
2018-06-22T02:28:06.148Z,100484
2018-06-22T02:29:10.745Z,100476
2018-06-22T02:30:16.196Z,100478
2018-06-22T02:31:21.625Z,100476
2018-06-22T02:32:26.493Z,100467
2018-06-22T02:33:32.003Z,100473
2018-06-22T02:34:37.454Z,100473
2018-06-22T02:35:42.340Z,100476
2018-06-22T02:36:47.574Z,100476
2018-06-22T02:37:52.730Z,100476
2018-06-22T02:38:58.192Z,100470
2018-06-22T02:40:02.760Z,100470
2018-06-22T02:41:07.637Z,100458
2018-06-22T02:42:13.106Z,100467
2018-06-22T02:43:18.233Z,100464
2018-06-22T02:44:23.707Z,100476
2018-06-22T02:45:28.540Z,100461
2018-06-22T02:46:33.472Z,100464
2018-06-22T02:47:38.632Z,100461
2018-06-22T02:48:44.432Z,100470
2018-06-22T02:49:49.876Z,100467
2018-06-22T02:50:54.759Z,100467
2018-06-22T02:52:00.458Z,100467
2018-06-22T02:53:05.057Z,100476
2018-06-22T02:54:10.500Z,100464
2018-06-22T02:55:15.742Z,100458
2018-06-22T02:56:21.181Z,100456
2018-06-22T02:57:41.261Z,100450
2018-06-22T02:58:46.704Z,100456
2018-06-22T02:59:52.162Z,100461
2018-06-22T03:00:58.429Z,100458
2018-06-22T03:02:03.306Z,100456
2018-06-22T03:03:08.751Z,100473
2018-06-22T03:04:14.256Z,100481
2018-06-22T03:05:19.421Z,100467
2018-06-22T03:06:23.717Z,100467
2018-06-22T03:07:29.040Z,100467
2018-06-22T03:08:34.514Z,100478
2018-06-22T03:09:40.078Z,100458
2018-06-22T03:10:45.254Z,100464
2018-06-22T03:11:50.696Z,100476
2018-06-22T03:12:56.114Z,100461
2018-06-22T03:14:01.277Z,100461
2018-06-22T03:15:05.921Z,100461
2018-06-22T03:16:11.342Z,100458
2018-06-22T03:17:15.952Z,100461
2018-06-22T03:18:21.120Z,100458
2018-06-22T03:19:26.331Z,100453
2018-06-22T03:20:30.985Z,100458
2018-06-22T03:21:36.799Z,100447
2018-06-22T03:22:42.247Z,100461
2018-06-22T03:23:47.688Z,100464
2018-06-22T03:24:53.381Z,100458
2018-06-22T03:25:58.828Z,100450
2018-06-22T03:27:03.705Z,100456
2018-06-22T03:28:09.407Z,100447
2018-06-22T03:29:14.293Z,100450
2018-06-22T03:30:19.446Z,100453
2018-06-22T03:31:25.136Z,100447
2018-06-22T03:32:30.604Z,100435
2018-06-22T03:33:35.920Z,100438
2018-06-22T03:34:40.806Z,100438
2018-06-22T03:35:46.252Z,100438
2018-06-22T03:36:51.949Z,100441
2018-06-22T03:37:57.103Z,100444
2018-06-22T03:39:02.005Z,100438
2018-06-22T03:40:07.251Z,100429
2018-06-22T03:41:12.410Z,100450
2018-06-22T03:42:17.576Z,100441
2018-06-22T03:43:22.996Z,100447
2018-06-22T03:44:28.198Z,100450
2018-06-22T03:45:33.872Z,100438
2018-06-22T03:46:39.327Z,100441
2018-06-22T03:47:44.477Z,100441
2018-06-22T03:48:49.624Z,100447
2018-06-22T03:49:55.061Z,100432
2018-06-22T03:50:59.946Z,100426
2018-06-22T03:52:05.095Z,100432
2018-06-22T03:53:10.542Z,100429
2018-06-22T03:54:15.996Z,100426
2018-06-22T03:55:21.145Z,100429
2018-06-22T03:56:26.033Z,100435
2018-06-22T03:57:31.846Z,100444
2018-06-22T03:58:36.989Z,100426
2018-06-22T03:59:42.469Z,100426
2018-06-22T04:00:47.892Z,100429
2018-06-22T04:01:53.045Z,100424
2018-06-22T04:02:58.501Z,100424
2018-06-22T04:04:03.917Z,100424
2018-06-22T04:05:09.085Z,100429
2018-06-22T04:06:14.245Z,100418
2018-06-22T04:07:19.695Z,100418
2018-06-22T04:08:24.590Z,100424
2018-06-22T04:09:29.829Z,100421
2018-06-22T04:10:34.996Z,100415
2018-06-22T04:11:40.159Z,100409
2018-06-22T04:12:46.059Z,100421
2018-06-22T04:13:51.514Z,100406
2018-06-22T04:14:56.100Z,100415
2018-06-22T04:16:01.617Z,100412
2018-06-22T04:17:05.925Z,100412
2018-06-22T04:18:11.374Z,100415
2018-06-22T04:19:17.190Z,100418
2018-06-22T04:20:22.786Z,100409
2018-06-22T04:21:28.065Z,100403
2018-06-22T04:22:32.937Z,100412
2018-06-22T04:23:37.805Z,100406
2018-06-22T04:24:43.475Z,100400
2018-06-22T04:25:48.364Z,100409
2018-06-22T04:26:53.249Z,100412
2018-06-22T04:27:58.938Z,100409
2018-06-22T04:29:04.394Z,100409
2018-06-22T04:30:09.824Z,100406
2018-06-22T04:31:15.268Z,100394
2018-06-22T04:32:20.475Z,100415
2018-06-22T04:33:25.675Z,100403
2018-06-22T04:34:31.119Z,100406
2018-06-22T04:35:36.572Z,100418
2018-06-22T04:36:42.134Z,100412
2018-06-22T04:37:47.337Z,100415
2018-06-22T04:38:52.506Z,100406
2018-06-22T04:39:58.055Z,100412
2018-06-22T04:41:02.926Z,100418
2018-06-22T04:42:07.535Z,100418
2018-06-22T04:43:13.333Z,100421
2018-06-22T04:44:18.493Z,100415
2018-06-22T04:45:23.663Z,100412
2018-06-22T04:46:44.038Z,100415
2018-06-22T04:47:49.508Z,100406
2018-06-22T04:48:54.251Z,100409
2018-06-22T04:49:59.709Z,100409
2018-06-22T04:51:04.582Z,100415
2018-06-22T04:52:10.100Z,100415
2018-06-22T04:53:15.471Z,100412
2018-06-22T04:54:20.658Z,100424
2018-06-22T04:55:25.949Z,100415
2018-06-22T04:56:31.140Z,100432
2018-06-22T04:57:36.662Z,100418
2018-06-22T04:58:42.119Z,100421
2018-06-22T04:59:47.558Z,100426
2018-06-22T05:00:53.264Z,100424
2018-06-22T05:01:58.445Z,100424
2018-06-22T05:03:03.605Z,100432
2018-06-22T05:04:09.023Z,100426
2018-06-22T05:05:14.470Z,100429
2018-06-22T05:06:19.626Z,100426
2018-06-22T05:07:24.283Z,100438
2018-06-22T05:08:29.743Z,100444
2018-06-22T05:09:35.153Z,100435
2018-06-22T05:10:40.444Z,100435
2018-06-22T05:11:45.710Z,100432
2018-06-22T05:12:51.408Z,100426
2018-06-22T05:13:55.999Z,100438
2018-06-22T05:15:01.182Z,100441
2018-06-22T05:16:06.025Z,100441
2018-06-22T05:17:10.905Z,100438
2018-06-22T05:18:16.079Z,100438
2018-06-22T05:19:21.315Z,100441
2018-06-22T05:20:26.187Z,100441
2018-06-22T05:21:31.729Z,100444
2018-06-22T05:22:37.251Z,100447
2018-06-22T05:23:42.803Z,100444
2018-06-22T05:24:48.480Z,100441
2018-06-22T05:25:54.183Z,100435
2018-06-22T05:26:59.366Z,100435
2018-06-22T05:28:04.328Z,100435
2018-06-22T05:29:09.205Z,100432
2018-06-22T05:30:14.494Z,100441
2018-06-22T05:31:20.292Z,100447
2018-06-22T05:32:25.169Z,100444
2018-06-22T05:33:30.266Z,100441
2018-06-22T05:34:35.448Z,100438
2018-06-22T05:35:40.330Z,100432
2018-06-22T05:36:45.592Z,100447
2018-06-22T05:37:50.485Z,100432
2018-06-22T05:38:55.074Z,100435
2018-06-22T05:40:00.585Z,100429
2018-06-22T05:41:04.913Z,100444
2018-06-22T05:42:09.237Z,100450
2018-06-22T05:43:15.034Z,100441
2018-06-22T05:44:19.925Z,100438
2018-06-22T05:46:46.031Z,100435
2018-06-22T05:47:51.207Z,100435
2018-06-22T05:48:56.343Z,100435
2018-06-22T05:50:01.228Z,100438
2018-06-22T05:51:05.765Z,100441
2018-06-22T05:52:10.357Z,100432
2018-06-22T05:53:15.438Z,100450
2018-06-22T05:54:20.334Z,100435
2018-06-22T05:55:26.047Z,100432
2018-06-22T05:56:31.113Z,100429
2018-06-22T05:57:36.707Z,100438
2018-06-22T05:58:41.326Z,100441
2018-06-22T05:59:46.489Z,100429
2018-06-22T06:00:51.998Z,100447
2018-06-22T06:01:57.466Z,100438
2018-06-22T06:03:02.367Z,100447
2018-06-22T06:04:07.207Z,100447
2018-06-22T06:05:11.816Z,100444
2018-06-22T06:06:16.983Z,100426
2018-06-22T06:07:21.827Z,100435
2018-06-22T06:08:26.704Z,100438
2018-06-22T06:09:32.581Z,100438
2018-06-22T06:10:37.740Z,100447
2018-06-22T06:11:42.903Z,100444
2018-06-22T06:12:48.747Z,100458
2018-06-22T06:13:53.915Z,100453
2018-06-22T06:14:59.377Z,100464
2018-06-22T06:16:05.081Z,100453
2018-06-22T06:17:09.971Z,100455
2018-06-22T06:18:14.852Z,100453
2018-06-22T06:19:20.603Z,100453
2018-06-22T06:20:25.511Z,100458
2018-06-22T06:21:31.461Z,100470
2018-06-22T06:22:36.729Z,100467
2018-06-22T06:23:41.628Z,100473
2018-06-22T06:24:47.258Z,100478
2018-06-22T06:25:52.419Z,100470
2018-06-22T06:26:57.384Z,100481
2018-06-22T06:28:02.957Z,100492
2018-06-22T06:29:08.114Z,100487
2018-06-22T06:30:12.995Z,100487
2018-06-22T06:31:18.519Z,100484
2018-06-22T06:32:23.676Z,100495
2018-06-22T06:33:29.527Z,100487
2018-06-22T06:34:34.720Z,100476
2018-06-22T06:35:39.900Z,100473
2018-06-22T06:36:45.457Z,100478
2018-06-22T06:37:50.896Z,100478
2018-06-22T06:38:56.360Z,100470
2018-06-22T06:40:02.053Z,100476
2018-06-22T06:41:06.944Z,100481
2018-06-22T06:42:11.828Z,100484
2018-06-22T06:43:17.621Z,100490
2018-06-22T06:44:22.223Z,100498
2018-06-22T06:45:27.917Z,100492
2018-06-22T06:46:33.118Z,100481
2018-06-22T06:47:37.712Z,100498
2018-06-22T06:48:43.236Z,100504
2018-06-22T06:49:48.414Z,100498
2018-06-22T06:50:53.884Z,100504
2018-06-22T06:51:59.445Z,100507
2018-06-22T06:53:04.619Z,100507
2018-06-22T06:54:09.783Z,100510
2018-06-22T06:55:15.247Z,100519
2018-06-22T06:56:20.128Z,100519
2018-06-22T06:57:25.996Z,100516
2018-06-22T06:58:31.169Z,100513
2018-06-22T06:59:36.338Z,100516
2018-06-22T07:00:41.486Z,100519
2018-06-22T07:01:46.658Z,100530
2018-06-22T07:02:52.254Z,100527
2018-06-22T07:03:57.953Z,100525
2018-06-22T07:05:03.415Z,100524
2018-06-22T07:06:08.568Z,100533
2018-06-22T07:07:13.990Z,100530
2018-06-22T07:08:19.148Z,100525
2018-06-22T07:09:24.357Z,100539
2018-06-22T07:10:30.111Z,100530
2018-06-22T07:11:35.282Z,100536
2018-06-22T07:12:40.567Z,100525
2018-06-22T07:13:45.730Z,100539
2018-06-22T07:14:50.881Z,100545
2018-06-22T07:15:56.293Z,100548
2018-06-22T07:17:01.455Z,100542
2018-06-22T07:18:05.511Z,100545
2018-06-22T07:19:10.642Z,100545
2018-06-22T07:20:15.248Z,100539
2018-06-22T07:21:20.704Z,100536
2018-06-22T07:22:25.827Z,100542
2018-06-22T07:23:30.914Z,100542
2018-06-22T07:24:36.424Z,100539
2018-06-22T07:25:41.037Z,100542
2018-06-22T07:26:46.477Z,100533
2018-06-22T07:27:51.772Z,100536
2018-06-22T07:28:56.650Z,100542
2018-06-22T07:30:01.812Z,100533
2018-06-22T07:31:07.231Z,100530
2018-06-22T07:32:12.686Z,100542
2018-06-22T07:33:17.848Z,100548
2018-06-22T07:34:23.544Z,100542
2018-06-22T07:35:28.422Z,100542
2018-06-22T07:36:33.570Z,100545
2018-06-22T07:37:39.030Z,100548
2018-06-22T07:38:43.937Z,100548
2018-06-22T07:39:49.378Z,100545
2018-06-22T07:40:54.820Z,100545
2018-06-22T07:41:59.696Z,100536
2018-06-22T07:43:05.384Z,100542
2018-06-22T07:44:10.265Z,100554
2018-06-22T07:45:15.706Z,100545
2018-06-22T07:46:21.414Z,100551
2018-06-22T07:47:26.587Z,100551
2018-06-22T07:48:32.280Z,100545
2018-06-22T07:49:37.943Z,100554
2018-06-22T07:50:43.105Z,100557
2018-06-22T07:51:48.804Z,100554
2018-06-22T07:52:53.693Z,100560
2018-06-22T07:53:59.133Z,100560
2018-06-22T07:55:04.635Z,100563
2018-06-22T07:56:09.864Z,100563
2018-06-22T07:57:14.570Z,100551
2018-06-22T07:58:20.082Z,100563
2018-06-22T07:59:25.533Z,100557
2018-06-22T08:00:31.774Z,100539
2018-06-22T08:01:37.238Z,100548
2018-06-22T08:02:41.563Z,100551
2018-06-22T08:03:46.779Z,100551
2018-06-22T08:04:51.664Z,100563
2018-06-22T08:05:57.111Z,100565
2018-06-22T08:07:02.477Z,100560
2018-06-22T08:08:07.651Z,100563
2018-06-22T08:09:13.093Z,100557
2018-06-22T08:10:18.517Z,100554
2018-06-22T08:11:23.964Z,100557
2018-06-22T08:12:29.227Z,100557
2018-06-22T08:13:34.656Z,100560
2018-06-22T08:14:39.827Z,100560
2018-06-22T08:15:45.520Z,100554
2018-06-22T08:16:50.503Z,100554
2018-06-22T08:17:55.486Z,100554
2018-06-22T08:19:00.346Z,100557
2018-06-22T08:20:05.513Z,100557
2018-06-22T08:21:11.163Z,100557
2018-06-22T08:22:16.036Z,100557
2018-06-22T08:23:20.951Z,100557
2018-06-22T08:24:26.943Z,100548
2018-06-22T08:25:32.398Z,100565
2018-06-22T08:26:37.846Z,100560
2018-06-22T08:27:43.660Z,100557
2018-06-22T08:28:49.137Z,100560
2018-06-22T08:29:54.623Z,100548
2018-06-22T08:30:59.849Z,100560
2018-06-22T08:32:05.020Z,100574
2018-06-22T08:33:10.183Z,100568
2018-06-22T08:34:15.840Z,100566
2018-06-22T08:35:20.724Z,100566
2018-06-22T08:36:40.655Z,100565
2018-06-22T08:37:45.812Z,100568
2018-06-22T08:38:51.241Z,100568
2018-06-22T08:39:56.375Z,100571
2018-06-22T08:41:01.530Z,100571
2018-06-22T08:42:05.971Z,100568
2018-06-22T08:43:11.968Z,100568
2018-06-22T08:44:16.841Z,100565
2018-06-22T08:45:21.716Z,100563
2018-06-22T08:46:27.896Z,100562
2018-06-22T08:47:32.514Z,100568
2018-06-22T08:48:38.018Z,100565
2018-06-22T08:49:43.190Z,100571
2018-06-22T08:50:48.664Z,100568
2018-06-22T08:51:54.233Z,100560
2018-06-22T08:52:59.414Z,100571
2018-06-22T08:54:05.069Z,100562
2018-06-22T08:55:10.192Z,100562
2018-06-22T08:56:15.558Z,100565
2018-06-22T08:57:20.727Z,100577
2018-06-22T08:58:26.172Z,100577
2018-06-22T08:59:31.613Z,100593
2018-06-22T09:00:37.143Z,100588
2018-06-22T09:01:42.305Z,100588
2018-06-22T09:02:47.478Z,100599
2018-06-22T09:03:53.187Z,100596
2018-06-22T09:04:58.655Z,100605
2018-06-22T09:06:04.176Z,100596
2018-06-22T09:07:09.861Z,100596
2018-06-22T09:08:15.476Z,100599
2018-06-22T09:09:21.206Z,100619
2018-06-22T09:10:26.820Z,100611
2018-06-22T09:11:32.271Z,100617
2018-06-22T09:12:37.642Z,100619
2018-06-22T09:13:43.550Z,100614
2018-06-22T09:14:48.943Z,100616
2018-06-22T09:15:54.460Z,100619
2018-06-22T09:16:59.638Z,100628
2018-06-22T09:18:04.479Z,100631
2018-06-22T09:19:10.214Z,100628
2018-06-22T09:20:15.686Z,100608
2018-06-22T09:21:20.281Z,100611
2018-06-22T09:22:40.634Z,100616
2018-06-22T09:23:46.095Z,100611
2018-06-22T09:24:51.515Z,100605
2018-06-22T09:25:56.713Z,100616
2018-06-22T09:27:01.601Z,100622
2018-06-22T09:28:06.634Z,100619
2018-06-22T09:29:11.527Z,100619
2018-06-22T09:30:16.422Z,100616
2018-06-22T09:31:21.000Z,100631
2018-06-22T09:32:27.004Z,100616
2018-06-22T09:33:32.863Z,100625
2018-06-22T09:34:37.723Z,100631
2018-06-22T09:35:42.885Z,100625
2018-06-22T09:36:48.149Z,100628
2018-06-22T09:37:53.585Z,100628
2018-06-22T09:38:58.558Z,100637
2018-06-22T09:40:03.687Z,100631
2018-06-22T09:41:08.304Z,100634
2018-06-22T09:42:13.823Z,100634
2018-06-22T09:43:19.674Z,100634
2018-06-22T09:44:24.561Z,100628
2018-06-22T09:45:30.012Z,100634
2018-06-22T09:46:34.902Z,100637
2018-06-22T09:47:40.337Z,100631
2018-06-22T09:48:46.208Z,100628
2018-06-22T09:49:51.363Z,100634
2018-06-22T09:50:56.537Z,100634
2018-06-22T09:52:02.227Z,100634
2018-06-22T09:53:06.638Z,100642
2018-06-22T09:54:11.911Z,100642
2018-06-22T09:55:17.394Z,100642
2018-06-22T09:56:22.289Z,100637
2018-06-22T09:57:27.407Z,100639
2018-06-22T09:58:32.858Z,100645
2018-06-22T09:59:38.321Z,100639
2018-06-22T10:00:44.161Z,100642
2018-06-22T10:01:49.355Z,100634
2018-06-22T10:02:54.834Z,100648
2018-06-22T10:03:59.971Z,100637
2018-06-22T10:05:05.129Z,100642
2018-06-22T10:06:10.292Z,100637
2018-06-22T10:07:16.668Z,100639
2018-06-22T10:08:22.209Z,100639
2018-06-22T10:09:28.187Z,100631
2018-06-22T10:10:33.093Z,100636
2018-06-22T10:11:38.541Z,100636
2018-06-22T10:12:44.046Z,100634
2018-06-22T10:13:49.526Z,100634
2018-06-22T10:14:54.972Z,100648
2018-06-22T10:16:00.133Z,100639
2018-06-22T10:17:05.005Z,100639
2018-06-22T10:18:09.884Z,100639
2018-06-22T10:19:15.487Z,100636
2018-06-22T10:20:20.645Z,100639
2018-06-22T10:21:26.562Z,100634
2018-06-22T10:22:31.727Z,100633
2018-06-22T10:23:36.804Z,100636
2018-06-22T10:24:42.230Z,100628
2018-06-22T10:25:47.675Z,100633
2018-06-22T10:26:53.205Z,100622
2018-06-22T10:27:59.161Z,100625
2018-06-22T10:29:04.352Z,100625
2018-06-22T10:30:08.968Z,100642
2018-06-22T10:31:14.235Z,100616
2018-06-22T10:32:19.402Z,100625
2018-06-22T10:33:25.568Z,100628
2018-06-22T10:34:31.255Z,100625
2018-06-22T10:35:36.130Z,100633
2018-06-22T10:36:41.648Z,100622
2018-06-22T10:37:47.103Z,100633
2018-06-22T10:38:52.712Z,100627
2018-06-22T10:39:58.123Z,100633
2018-06-22T10:41:02.987Z,100633
2018-06-22T10:42:08.143Z,100642
2018-06-22T10:43:13.854Z,100648
2018-06-22T10:44:19.316Z,100636
2018-06-22T10:45:24.188Z,100645
2018-06-22T10:46:30.113Z,100639
2018-06-22T10:47:35.277Z,100648
2018-06-22T10:48:41.136Z,100645
2018-06-22T10:49:45.711Z,100636
2018-06-22T10:50:50.883Z,100654
2018-06-22T10:51:56.917Z,100630
2018-06-22T10:53:02.023Z,100651
2018-06-22T10:54:07.190Z,100651
2018-06-22T10:55:12.332Z,100642
2018-06-22T10:56:17.781Z,100651
2018-06-22T10:57:23.290Z,100642
2018-06-22T10:58:43.635Z,100648
2018-06-22T10:59:49.060Z,100645
2018-06-22T11:00:54.751Z,100651
2018-06-22T11:01:59.836Z,100645
2018-06-22T11:03:05.030Z,100634
2018-06-22T11:04:09.915Z,100642
2018-06-22T11:05:15.079Z,100637
2018-06-22T11:06:19.963Z,100640
2018-06-22T11:07:26.020Z,100645
2018-06-22T11:08:31.466Z,100654
2018-06-22T11:09:37.046Z,100648
2018-06-22T11:10:42.217Z,100648
2018-06-22T11:11:48.084Z,100659
2018-06-22T11:12:53.787Z,100670
2018-06-22T11:13:58.743Z,100676
2018-06-22T11:15:03.791Z,100685
2018-06-22T11:16:09.489Z,100685
2018-06-22T11:17:14.149Z,100688
2018-06-22T11:18:19.669Z,100679
2018-06-22T11:19:25.282Z,100682
2018-06-22T11:20:30.186Z,100688
2018-06-22T11:21:36.131Z,100676
2018-06-22T11:22:41.579Z,100682
2018-06-22T11:23:46.734Z,100673
2018-06-22T11:24:52.338Z,100688
2018-06-22T11:25:57.821Z,100688
2018-06-22T11:27:02.709Z,100685
2018-06-22T11:28:08.244Z,100685
2018-06-22T11:29:13.686Z,100682
2018-06-22T11:30:19.132Z,100679
2018-06-22T11:31:24.931Z,100679
2018-06-22T11:32:30.111Z,100682
2018-06-22T11:33:35.828Z,100676
2018-06-22T11:34:41.007Z,100694
2018-06-22T11:35:46.307Z,100691
2018-06-22T11:36:51.821Z,100682
2018-06-22T11:37:56.413Z,100685
2018-06-22T11:39:01.274Z,100691
2018-06-22T11:40:06.295Z,100685
2018-06-22T11:41:11.478Z,100688
2018-06-22T11:42:16.344Z,100685
2018-06-22T11:43:21.478Z,100705
2018-06-22T11:44:26.982Z,100700
2018-06-22T11:45:32.534Z,100697
2018-06-22T11:46:37.414Z,100691
2018-06-22T11:47:42.293Z,100691
2018-06-22T11:48:47.862Z,100682
2018-06-22T11:49:53.062Z,100708
2018-06-22T11:50:58.228Z,100700
2018-06-22T11:52:03.740Z,100703
2018-06-22T11:53:08.632Z,100694
2018-06-22T11:54:13.799Z,100694
2018-06-22T11:55:19.643Z,100685
2018-06-22T11:56:24.816Z,100685
2018-06-22T11:57:30.390Z,100691
2018-06-22T11:58:35.832Z,100691
2018-06-22T11:59:40.440Z,100694
2018-06-22T12:00:45.676Z,100697
2018-06-22T12:01:51.016Z,100688
2018-06-22T12:02:55.909Z,100691
2018-06-22T12:04:02.028Z,100688
2018-06-22T12:05:07.237Z,100682
2018-06-22T12:06:12.132Z,100682
2018-06-22T12:07:17.827Z,100676
2018-06-22T12:08:22.702Z,100674
2018-06-22T12:09:27.563Z,100676
2018-06-22T12:10:32.441Z,100671
2018-06-22T12:11:37.039Z,100673
2018-06-22T12:12:42.877Z,100676
2018-06-22T12:13:47.745Z,100679
2018-06-22T12:14:53.209Z,100688
2018-06-22T12:15:59.098Z,100670
2018-06-22T12:17:03.418Z,100688
2018-06-22T12:18:08.469Z,100697
2018-06-22T12:19:14.539Z,100685
2018-06-22T12:20:19.860Z,100703
2018-06-22T12:21:26.019Z,100703
2018-06-22T12:22:30.916Z,100705
2018-06-22T12:23:36.411Z,100708
2018-06-22T12:24:42.114Z,100705
2018-06-22T12:25:47.296Z,100711
2018-06-22T12:26:52.474Z,100711
2018-06-22T12:27:57.590Z,100711
2018-06-22T12:29:02.672Z,100714
2018-06-22T12:30:07.848Z,100717
2018-06-22T12:31:13.548Z,100711
2018-06-22T12:32:19.018Z,100709
2018-06-22T12:33:24.178Z,100706
2018-06-22T12:34:44.530Z,100717
2018-06-22T12:35:49.417Z,100711
2018-06-22T12:36:54.859Z,100709
2018-06-22T12:37:59.738Z,100711
2018-06-22T12:39:04.337Z,100717
2018-06-22T12:40:09.317Z,100714
2018-06-22T12:41:13.633Z,100723
2018-06-22T12:42:18.520Z,100711
2018-06-22T12:43:23.783Z,100723
2018-06-22T12:44:29.228Z,100717
2018-06-22T12:45:35.139Z,100714
2018-06-22T12:46:40.328Z,100717
2018-06-22T12:47:45.227Z,100720
2018-06-22T12:48:49.913Z,100714
2018-06-22T12:49:55.148Z,100706
2018-06-22T12:50:59.745Z,100706
2018-06-22T12:52:05.079Z,100706
2018-06-22T12:53:10.246Z,100709
2018-06-22T12:54:15.422Z,100717
2018-06-22T12:55:20.841Z,100703
2018-06-22T12:56:26.010Z,100706
2018-06-22T12:57:32.121Z,100712
2018-06-22T12:58:37.369Z,100709
2018-06-22T12:59:42.529Z,100714
2018-06-22T13:00:48.057Z,100709
2018-06-22T13:01:53.216Z,100723
2018-06-22T13:02:58.663Z,100709
2018-06-22T13:04:04.062Z,100700
2018-06-22T13:05:09.490Z,100709
2018-06-22T13:06:14.630Z,100700
2018-06-22T13:07:20.064Z,100700
2018-06-22T13:08:25.507Z,100706
2018-06-22T13:09:31.371Z,100697
2018-06-22T13:10:36.905Z,100697
2018-06-22T13:11:42.666Z,100677
2018-06-22T13:12:48.564Z,100697
2018-06-22T13:13:54.012Z,100694
2018-06-22T13:14:58.884Z,100682
2018-06-22T13:16:03.729Z,100700
2018-06-22T13:17:08.641Z,100682
2018-06-22T13:18:14.098Z,100691
2018-06-22T13:19:19.520Z,100688
2018-06-22T13:20:25.155Z,100694
2018-06-22T13:21:30.620Z,100688
2018-06-22T13:22:35.788Z,100694
2018-06-22T13:23:40.672Z,100688
2018-06-22T13:24:46.089Z,100685
2018-06-22T13:25:51.533Z,100691
2018-06-22T13:26:56.413Z,100685
2018-06-22T13:28:01.386Z,100691
2018-06-22T13:29:06.845Z,100685
2018-06-22T13:30:12.633Z,100685
2018-06-22T13:31:18.622Z,100694
2018-06-22T13:32:23.220Z,100694
2018-06-22T13:33:28.099Z,100685
2018-06-22T13:34:33.013Z,100685
2018-06-22T13:35:38.174Z,100682
2018-06-22T13:36:43.594Z,100694
2018-06-22T13:37:48.945Z,100682